createdAt,value
2023-05-14T00:02:02.377Z,12.3
2023-05-14T00:07:02.348Z,12.3
2023-05-14T00:12:02.430Z,12.3
2023-05-14T00:17:02.358Z,12.4
2023-05-14T00:22:02.384Z,12.4
2023-05-14T00:27:02.360Z,12.4
2023-05-14T00:32:02.368Z,12.4
2023-05-14T00:37:02.368Z,12.4
2023-05-14T00:42:02.394Z,12.4
2023-05-14T00:47:02.473Z,12.3
2023-05-14T00:52:02.401Z,12.2
2023-05-14T00:57:02.410Z,12.1
2023-05-14T01:02:02.382Z,12.0
2023-05-14T01:07:02.395Z,11.9
2023-05-14T01:12:02.409Z,11.9
2023-05-14T01:17:02.400Z,11.8
2023-05-14T01:22:02.413Z,11.7
2023-05-14T01:27:02.400Z,11.7
2023-05-14T01:32:02.443Z,11.6
2023-05-14T01:37:02.404Z,11.5
2023-05-14T01:42:02.430Z,11.4
2023-05-14T01:47:02.407Z,11.4
2023-05-14T01:52:02.430Z,11.3
2023-05-14T01:57:02.421Z,11.2
2023-05-14T02:02:02.478Z,11.1
2023-05-14T02:07:02.432Z,11.0
2023-05-14T02:12:02.512Z,10.9
2023-05-14T02:17:02.430Z,10.9
2023-05-14T02:22:02.450Z,10.8
2023-05-14T02:27:02.437Z,10.7
2023-05-14T02:32:02.443Z,10.6
2023-05-14T02:37:02.447Z,10.6
2023-05-14T02:42:02.474Z,10.5
2023-05-14T02:47:02.472Z,10.5
2023-05-14T02:52:02.486Z,10.4
2023-05-14T02:57:02.452Z,10.4
2023-05-14T03:02:02.536Z,10.3
2023-05-14T03:07:02.462Z,10.2
2023-05-14T03:12:02.544Z,10.1
2023-05-14T03:17:02.565Z,10.1
2023-05-14T03:22:02.494Z,10.1
2023-05-14T03:27:02.458Z,10.1
2023-05-14T03:32:02.501Z,10.1
2023-05-14T03:37:02.477Z,10.0
2023-05-14T03:42:02.521Z,10.1
2023-05-14T03:47:02.527Z,10.1
2023-05-14T03:52:02.507Z,10.1
2023-05-14T03:57:02.517Z,10.1
2023-05-14T04:02:02.520Z,10.1
2023-05-14T04:07:02.521Z,10.0
2023-05-14T04:12:02.572Z,10.1
2023-05-14T04:17:02.505Z,10.1
2023-05-14T04:22:02.522Z,10.2
2023-05-14T04:27:02.502Z,10.4
2023-05-14T04:32:02.534Z,10.5
2023-05-14T04:37:02.504Z,10.5
2023-05-14T04:42:02.640Z,10.8
2023-05-14T04:47:02.499Z,10.8
2023-05-14T04:52:02.543Z,10.8
2023-05-14T04:57:02.522Z,10.8
2023-05-14T05:02:02.536Z,10.9
2023-05-14T05:07:02.525Z,10.9
2023-05-14T05:12:02.656Z,11.1
2023-05-14T05:17:02.545Z,11.2
2023-05-14T05:22:02.559Z,11.2
2023-05-14T05:27:02.556Z,11.3
2023-05-14T05:32:02.557Z,11.2
2023-05-14T05:37:02.553Z,11.8
2023-05-14T05:42:02.778Z,12.1
2023-05-14T05:47:02.694Z,12.4
2023-05-14T05:52:02.571Z,12.7
2023-05-14T05:57:02.574Z,12.6
2023-05-14T06:02:02.632Z,12.7
2023-05-14T06:07:02.572Z,13.0
2023-05-14T06:12:02.649Z,13.2
2023-05-14T06:17:02.709Z,13.6
2023-05-14T06:22:02.607Z,13.8
2023-05-14T06:27:02.572Z,14.0
2023-05-14T06:32:02.602Z,13.7
2023-05-14T06:37:02.582Z,13.5
2023-05-14T06:42:02.674Z,13.9
2023-05-14T06:47:02.595Z,13.6
2023-05-14T06:52:02.622Z,13.4
2023-05-14T06:57:02.598Z,13.5
2023-05-14T07:02:02.592Z,13.6
2023-05-14T07:07:02.599Z,14.0
2023-05-14T07:12:02.693Z,14.1
2023-05-14T07:17:02.685Z,14.4
2023-05-14T07:22:02.640Z,14.8
2023-05-14T07:27:02.614Z,14.9
2023-05-14T07:32:02.625Z,15.3
2023-05-14T07:37:02.618Z,15.7
2023-05-14T07:42:02.661Z,16.4
2023-05-14T07:47:02.700Z,16.6
2023-05-14T07:52:02.670Z,16.6
2023-05-14T07:57:02.640Z,16.6
2023-05-14T08:02:02.649Z,16.4
2023-05-14T08:07:02.632Z,17.1
2023-05-14T08:12:02.786Z,17.6
2023-05-14T08:17:02.675Z,18.5
2023-05-14T08:22:02.661Z,18.9
2023-05-14T08:27:02.657Z,18.6
2023-05-14T08:32:11.624Z,19.3
2023-05-14T08:37:02.663Z,20.5
2023-05-14T08:42:02.713Z,20.7
2023-05-14T08:47:02.668Z,21.4
2023-05-14T08:52:02.692Z,21.5
2023-05-14T08:57:02.678Z,21.8
2023-05-14T09:02:02.741Z,21.0
2023-05-14T09:07:02.794Z,20.8
2023-05-14T09:12:02.702Z,21.7
2023-05-14T09:17:02.688Z,22.4
2023-05-14T09:22:02.704Z,21.7
2023-05-14T09:27:02.687Z,21.2
2023-05-14T09:32:02.750Z,21.0
2023-05-14T09:37:02.733Z,21.6
2023-05-14T09:42:02.752Z,22.0
2023-05-14T09:47:02.725Z,21.7
2023-05-14T09:52:02.770Z,21.3
2023-05-14T09:57:02.709Z,20.5
2023-05-14T10:02:02.712Z,20.0
2023-05-14T10:07:02.718Z,19.9
2023-05-14T10:12:02.751Z,20.4
2023-05-14T10:17:02.753Z,21.0
2023-05-14T10:22:02.755Z,21.1
2023-05-14T10:27:02.751Z,21.0
2023-05-14T10:32:02.727Z,20.3
2023-05-14T10:37:02.757Z,20.5
2023-05-14T10:42:02.763Z,20.3
2023-05-14T10:47:02.796Z,20.3
2023-05-14T10:52:02.750Z,20.5
2023-05-14T10:57:02.743Z,20.3
2023-05-14T11:02:02.785Z,20.1
2023-05-14T11:07:02.767Z,20.2
2023-05-14T11:12:02.790Z,20.3
2023-05-14T11:17:02.790Z,20.9
2023-05-14T11:22:02.799Z,20.9
2023-05-14T11:27:02.763Z,20.9
2023-05-14T11:32:02.859Z,21.1
2023-05-14T11:37:02.788Z,21.5
2023-05-14T11:42:02.844Z,21.6
2023-05-14T11:47:02.779Z,22.0
2023-05-14T11:52:02.807Z,21.2
2023-05-14T11:57:02.789Z,22.1
2023-05-14T12:02:02.803Z,22.1
2023-05-14T12:07:02.781Z,21.8
2023-05-14T12:12:02.915Z,21.8
2023-05-14T12:17:02.797Z,21.7
2023-05-14T12:22:02.834Z,21.5
2023-05-14T12:27:02.813Z,21.9
2023-05-14T12:32:02.802Z,22.0
2023-05-14T12:37:02.810Z,21.6
2023-05-14T12:42:02.899Z,21.5
2023-05-14T12:47:02.861Z,22.0
2023-05-14T12:52:17.388Z,21.9
2023-05-14T12:57:02.820Z,22.0
2023-05-14T13:02:02.836Z,22.2
2023-05-14T13:07:02.834Z,22.1
2023-05-14T13:12:02.862Z,22.4
2023-05-14T13:17:02.880Z,22.2
2023-05-14T13:22:02.861Z,22.1
2023-05-14T13:27:02.846Z,22.5
2023-05-14T13:32:02.856Z,22.5
2023-05-14T13:37:02.866Z,22.3
2023-05-14T13:42:02.996Z,22.5
2023-05-14T13:47:02.852Z,22.5
2023-05-14T13:52:02.880Z,22.6
2023-05-14T13:57:02.859Z,22.9
2023-05-14T14:02:03.023Z,22.6
2023-05-14T14:07:02.863Z,22.3
2023-05-14T14:12:02.913Z,22.4
2023-05-14T14:17:02.873Z,22.2
2023-05-14T14:22:02.966Z,22.1
2023-05-14T14:27:02.883Z,21.8
2023-05-14T14:32:02.971Z,22.1
2023-05-14T14:37:02.908Z,21.7
2023-05-14T14:42:02.959Z,21.9
2023-05-14T14:47:02.894Z,22.4
2023-05-14T14:52:02.915Z,21.9
2023-05-14T14:57:02.924Z,22.0
2023-05-14T15:02:02.905Z,21.8
2023-05-14T15:07:02.926Z,22.1
2023-05-14T15:12:02.938Z,21.8
2023-05-14T15:17:03.011Z,21.8
2023-05-14T15:22:02.948Z,21.8
2023-05-14T15:27:02.928Z,21.7
2023-05-14T15:32:03.109Z,21.6
2023-05-14T15:37:02.931Z,22.0
2023-05-14T15:42:02.954Z,22.1
2023-05-14T15:47:02.940Z,21.9
2023-05-14T15:52:02.955Z,21.6
2023-05-14T15:57:02.935Z,21.5
2023-05-14T16:02:03.106Z,21.2
2023-05-14T16:07:02.950Z,21.1
2023-05-14T16:12:03.040Z,20.9
2023-05-14T16:17:02.957Z,20.7
2023-05-14T16:22:03.015Z,20.6
2023-05-14T16:27:02.961Z,20.9
2023-05-14T16:32:02.974Z,20.9
2023-05-14T16:37:03.242Z,20.8
2023-05-14T16:42:02.992Z,20.8
2023-05-14T16:47:02.970Z,20.6
2023-05-14T16:52:02.989Z,20.5
2023-05-14T16:57:02.963Z,20.4
2023-05-14T17:02:03.076Z,20.4
2023-05-14T17:07:02.972Z,20.3
2023-05-14T17:12:03.026Z,20.2
2023-05-14T17:17:02.973Z,20.1
2023-05-14T17:22:03.004Z,20.0
2023-05-14T17:27:03.009Z,19.8
2023-05-14T17:32:03.023Z,19.5
2023-05-14T17:37:02.993Z,19.2
2023-05-14T17:42:03.074Z,19.0
2023-05-14T17:47:03.036Z,18.6
2023-05-14T17:52:03.028Z,18.5
2023-05-14T17:57:03.019Z,18.4
2023-05-14T18:02:03.018Z,17.9
2023-05-14T18:07:03.024Z,17.7
2023-05-14T18:12:03.037Z,17.5
2023-05-14T18:17:03.335Z,17.2
2023-05-14T18:22:03.059Z,17.0
2023-05-14T18:27:03.071Z,16.8
2023-05-14T18:32:03.052Z,16.5
2023-05-14T18:37:03.045Z,16.4
2023-05-14T18:42:03.053Z,16.2
2023-05-14T18:47:03.082Z,16.0
2023-05-14T18:52:03.071Z,15.9
2023-05-14T18:57:03.057Z,15.7
2023-05-14T19:02:03.115Z,15.6
2023-05-14T19:07:03.065Z,15.4
2023-05-14T19:12:03.063Z,15.3
2023-05-14T19:17:03.101Z,15.2
2023-05-14T19:22:03.122Z,15.1
2023-05-14T19:27:03.087Z,15.0
2023-05-14T19:32:03.140Z,14.9
2023-05-14T19:37:03.080Z,14.7
2023-05-14T19:42:03.087Z,14.7
2023-05-14T19:47:03.132Z,14.6
2023-05-14T19:52:03.109Z,14.4
2023-05-14T19:57:03.091Z,14.4
2023-05-14T20:02:03.129Z,14.3
2023-05-14T20:07:03.096Z,14.3
2023-05-14T20:12:03.105Z,14.1
2023-05-14T20:17:03.207Z,14.1
2023-05-14T20:22:03.140Z,14.0
2023-05-14T20:27:03.119Z,14.0
2023-05-14T20:32:03.129Z,13.9
2023-05-14T20:37:03.129Z,13.8
2023-05-14T20:42:03.121Z,13.7
2023-05-14T20:47:03.149Z,13.6
2023-05-14T20:52:03.136Z,13.6
2023-05-14T20:57:03.134Z,13.6
2023-05-14T21:02:03.237Z,13.5
2023-05-14T21:07:03.134Z,13.4
2023-05-14T21:12:03.145Z,13.3
2023-05-14T21:17:03.166Z,13.3
2023-05-14T21:22:03.168Z,13.2
2023-05-14T21:27:03.144Z,13.1
2023-05-14T21:32:03.242Z,13.1
2023-05-14T21:37:03.158Z,13.0
2023-05-14T21:42:03.153Z,12.9
2023-05-14T21:47:03.253Z,12.9
2023-05-14T21:52:03.215Z,12.8
2023-05-14T21:57:03.159Z,12.8
2023-05-14T22:02:07.281Z,12.7
2023-05-14T22:07:03.197Z,12.6
2023-05-14T22:12:03.178Z,12.5
2023-05-14T22:17:03.306Z,12.4
2023-05-14T22:22:03.190Z,12.4
2023-05-14T22:27:03.191Z,12.3
2023-05-14T22:32:03.190Z,12.3
2023-05-14T22:37:03.203Z,12.2
2023-05-14T22:42:03.199Z,12.2
2023-05-14T22:47:03.327Z,12.1
2023-05-14T22:52:03.250Z,12.0
2023-05-14T22:57:03.206Z,11.9
2023-05-14T23:02:03.281Z,11.9
2023-05-14T23:07:03.210Z,11.8
2023-05-14T23:12:03.224Z,11.7
2023-05-14T23:17:03.248Z,11.7
2023-05-14T23:22:03.244Z,11.6
2023-05-14T23:27:03.225Z,11.5
2023-05-14T23:32:03.269Z,11.5
2023-05-14T23:37:03.222Z,11.4
2023-05-14T23:42:03.227Z,11.4
2023-05-14T23:47:03.319Z,11.4
2023-05-14T23:52:03.257Z,11.3
2023-05-14T23:57:03.226Z,11.3
